メインページ
METAR-TAF:

METAR-TAF

空港 :

キングストン, ジャマイカ

ノーマン・マンレー国際空港

緯度: 17-56N, 経度: 076-47W, 海抜: 3m

現時点の気象観測

当レポートは1時間10分前の11:00(UTC)に作成
北/北西の風 9kt
気温 25°C
湿度 69%
気圧 1015 hPa
視程10km以上
高度2000ftの雲はほとんどない
高度3000ftの雲は散在している

METAR: MKJP 241100Z 34009KT 9999 FEW020 SCT030 25/19 Q1015

時間: 07:10 (12:10 UTC)

予報

当レポートは55分前の11:15(UTC)に作成
予報は24日の 12時(UTC)から 25日の 12時(UTC)まで有効
北/北西の風 6kt
視程10km以上
高度2200ftの雲はほとんどない
24日の 14時(UTC)から 24日の 16時(UTC)まで徐々に
の風 12kt
高度1800ftの雲はほとんどない
高度2200ftの雲はほとんどない, 積乱雲.
25日の 01時(UTC)から 25日の 03時(UTC)まで徐々に
の風 6kt
高度2200ftの雲はほとんどない

TAF: MKJP 241115Z 2412/2512 34006KT 9999 FEW022 BECMG 2414/2416 18012KT FEW018 FEW022CB BECMG 2501/2503 35006KT FEW022

4,000以上の空港の気象観測と天気予報(METAR報とTAF報)

利用可能な観測所は地図上に黄色い丸と赤い丸で示す。

丸の上にカーソルを重ねると観測所名を参照できる。

次にクリックすると気象観測と天気予報を参照できる。

マップの切り替え:黒色「×」印の緑ボタンをクリックして拡大、「-」印の緑ボタンをクリックして縮小、緑色の三角印をクリックして隣りの地図に切り替え


METAR-TAF: